Airfield :
LOGIN :

Register | Disclaimer

   EN    FR    IT 

 










Legend :    VFR   Marginal VFR   IFR   Intensive IFR   Very Intensive IFR
Visi :
Ceiling :
>= 8 km
>= 3000ft
5 to 8 km
1000 to 3000 ft
1500m to 5 km
500 to 1000 ft
800 to 1500m
200 to 500 ft
< 800m
< 200 ft
Symbols :   Thunderstorms  Fog  Heavy snow  Heavy precipitations  Wind > 20 kt
SIGMETs :     Misc.  Thunderstorms  Icing  Turbulence  Mountain Waves  Volcanic Ashes







- Airport Elevation : 1325 ft
- IATA code : EBU
- Download approach charts


LFMH - St-Etienne Boutheon

CURRENT METAR :
  • 260830Z AUTO 35008KT 300V030 CAVOK 17/09 Q1018 TEMPO FEW042TCU

EXPIRED METARs :
  • 260800Z AUTO 34007KT 300V020 CAVOK 17/10 Q1018 TEMPO FEW046TCU
  • 260730Z AUTO 33008KT 300V010 CAVOK 16/10 Q1018 TEMPO FEW046TCU
  • 260700Z AUTO 33007KT 300V010 CAVOK 15/10 Q1019 TEMPO FEW046TCU
  • 260630Z AUTO 36007KT CAVOK 14/10 Q1019 TEMPO FEW046TCU
  • 260600Z AUTO 34005KT 310V020 CAVOK 14/10 Q1019 NOSIG

TAF TAF LFMH
Valid from the 26 at 09:00 until the 27 at 09:00 UTC


260800Z 2609/2709 34010G20KT 9999 SCT045
PROB30
TEMPO 2610/2616 FEW042TCU
BECMG 2618/2621 VRB03KT
TEMPO 2700/2706 5000 BKN016
BECMG 2707/2709 36005KT BKN032
ATIS : +33 4 77 36 17 51
No reported NOTAMs for that airfield.
1 SIGMET reported for the Marseille FIR (LFMM) :
 
Severe turbulence
LFMM SIGMET 2 VALID 260700/261100 LFPW
LFMM MARSEILLE FIR/UIR SEV TURB FCST WI N3900 E00600 - N3900 E00430 - N4145 E00430 - N4630 E00600 - N4630 E00700 - N4415 E00700 - N3900 E00600 FL220/310 STNR NC=



MET'MAP, your aeronautical weather chart ! - Copyright ORBIFLY December 2007 - Disclaimer

ORBIFLY MET'MAP TEAM :

Programming & Development : Alexandra Zaïnal
Concept & Development : Baudouin d'Aumeries
Co-Development & Prog : Marc-Olivier Méhu
Technical & hardware support : Manuel Goepfert

Contact : metmap@orbifly.com




SOURCES & CREDITS :

   NOAA